Time;durP1;ratioP1;P1;durP2;ratioP2;P2;SDS_P1;SDS_P2;PMS_P1;PMS_P2;Temp;Humidity;BMP_temperature;BMP_pressure;BME280_temperature;BME280_humidity;BME280_pressure;Samples;Min_cycle;Max_cycle;Signal;HPM_P1;HPM_P2
2021/04/04 00:02:21;;;;;;;6.65;3.97;;;;;;;6.71;55.17;98270.31;4959128;28;45213;-79
2021/04/04 00:04:47;;;;;;;8.25;4.18;;;;;;;6.74;52.60;98270.06;4958811;28;45916;-78
2021/04/04 00:07:12;;;;;;;8.20;4.25;;;;;;;6.85;54.10;98271.81;4959069;28;45218;-78
2021/04/04 00:09:38;;;;;;;8.02;4.07;;;;;;;6.86;53.61;98276.94;4972003;28;45292;-78
2021/04/04 00:12:04;;;;;;;5.80;3.75;;;;;;;6.85;53.12;98263.88;4958804;28;45330;-80
2021/04/04 00:14:30;;;;;;;8.18;4.15;;;;;;;6.65;54.18;98265.56;4958870;28;45491;-79
2021/04/04 00:16:55;;;;;;;6.70;3.58;;;;;;;6.41;54.71;98270.16;4958923;28;45285;-79
2021/04/04 00:19:21;;;;;;;7.88;3.97;;;;;;;6.45;54.25;98268.09;4958978;28;45293;-79
2021/04/04 00:21:46;;;;;;;7.10;3.97;;;;;;;6.31;56.41;98271.06;4959002;28;45494;-79
2021/04/04 00:24:12;;;;;;;7.55;4.05;;;;;;;6.57;54.92;98274.13;4958664;28;46191;-79
2021/04/04 00:26:37;;;;;;;6.25;4.18;;;;;;;6.41;56.57;98274.59;4958504;28;45435;-78
2021/04/04 00:29:06;;;;;;;8.32;4.03;;;;;;;6.38;54.65;98269.59;4959045;28;45318;-79
2021/04/04 00:31:32;;;;;;;8.18;4.30;;;;;;;6.10;57.83;98267.44;4966926;28;45229;-79
2021/04/04 00:33:58;;;;;;;6.57;3.78;;;;;;;6.58;54.15;98275.81;4963227;28;46075;-79
2021/04/04 00:36:24;;;;;;;5.30;3.80;;;;;;;6.23;56.03;98279.63;4958701;28;45309;-79
2021/04/04 00:38:50;;;;;;;7.80;4.65;;;;;;;6.01;57.12;98273.47;4958627;28;45610;-79
2021/04/04 00:41:15;;;;;;;6.85;4.20;;;;;;;6.31;55.01;98282.44;4958393;28;45581;-78
2021/04/04 00:43:40;;;;;;;9.43;4.78;;;;;;;5.99;57.37;98285.94;4958389;28;45232;-79
2021/04/04 00:46:06;;;;;;;7.07;3.92;;;;;;;5.83;56.61;98287.19;4972273;28;45481;-79
2021/04/04 00:48:31;;;;;;;8.23;4.07;;;;;;;5.83;56.82;98291.63;4964731;28;45597;-79
2021/04/04 00:50:57;;;;;;;7.07;4.55;;;;;;;6.05;56.31;98290.75;4962253;28;45482;-79
2021/04/04 00:53:23;;;;;;;7.50;4.30;;;;;;;6.04;58.09;98291.72;4965837;28;45948;-79
2021/04/04 00:55:49;;;;;;;7.82;4.43;;;;;;;5.91;57.99;98298.94;4969063;28;45450;-79
2021/04/04 00:58:14;;;;;;;5.22;3.72;;;;;;;5.97;55.65;98287.88;4978547;28;45594;-78
2021/04/04 01:00:40;;;;;;;9.15;4.05;;;;;;;5.95;57.49;98290.63;4961952;28;45340;-78
2021/04/04 01:03:05;;;;;;;7.32;4.18;;;;;;;5.80;57.80;98294.50;4961498;28;45328;-79
2021/04/04 01:05:38;;;;;;;6.47;4.22;;;;;;;5.76;59.29;98293.09;4961891;28;45344;-79
2021/04/04 01:08:05;;;;;;;8.45;4.03;;;;;;;6.02;55.20;98298.06;4962412;28;45380;-78
2021/04/04 01:10:36;;;;;;;7.25;4.07;;;;;;;6.05;55.80;98300.44;4973998;28;45300;-79
2021/04/04 01:13:18;;;;;;;9.43;4.22;;;;;;;6.16;55.49;98304.84;4961120;28;45339;-79
2021/04/04 01:15:52;;;;;;;7.80;3.72;;;;;;;5.88;56.14;98299.19;4961744;28;45289;-79
2021/04/04 01:18:26;;;;;;;7.25;3.92;;;;;;;6.08;55.66;98294.91;4961434;28;45536;-79
2021/04/04 01:20:58;;;;;;;7.13;3.65;;;;;;;6.21;55.51;98300.03;4961607;28;45354;-79
2021/04/04 01:23:57;;;;;;;6.10;3.70;;;;;;;6.24;56.21;98295.34;4961707;28;45337;-79
2021/04/04 01:26:44;;;;;;;7.70;4.63;;;;;;;6.01;55.74;98289.31;4972721;28;45718;-79
2021/04/04 01:29:10;;;;;;;7.00;4.18;;;;;;;5.66;56.72;98299.09;4962088;28;45353;-79
2021/04/04 01:31:37;;;;;;;6.85;3.92;;;;;;;5.72;56.43;98296.94;4970064;28;45443;-78
2021/04/04 01:34:05;;;;;;;7.03;3.50;;;;;;;5.99;55.07;98299.13;4965428;28;45409;-79
2021/04/04 01:36:31;;;;;;;7.78;3.80;;;;;;;5.76;55.29;98296.56;4961360;28;45304;-79
2021/04/04 01:39:00;;;;;;;7.28;3.65;;;;;;;5.46;57.76;98289.31;4974700;28;45472;-79
2021/04/04 01:41:32;;;;;;;6.45;3.70;;;;;;;5.44;59.04;98307.06;4970757;28;45357;-79
2021/04/04 01:44:01;;;;;;;6.95;4.07;;;;;;;5.30;57.39;98300.25;4971579;28;48393;-79
2021/04/04 01:46:28;;;;;;;11.40;5.50;;;;;;;5.46;56.44;98305.16;4976545;28;45334;-78
2021/04/04 01:48:55;;;;;;;11.10;5.22;;;;;;;5.43;60.30;98303.56;4961513;28;45460;-78
2021/04/04 01:51:23;;;;;;;9.23;3.92;;;;;;;5.67;57.40;98306.06;4963396;28;45487;-79
2021/04/04 01:53:50;;;;;;;5.95;3.85;;;;;;;5.58;56.57;98304.16;4960718;28;45301;-79
2021/04/04 01:56:17;;;;;;;7.22;3.72;;;;;;;5.32;58.18;98309.72;4970415;28;45292;-79
2021/04/04 01:58:43;;;;;;;6.10;3.90;;;;;;;5.32;59.37;98306.22;4973164;28;45349;-79
2021/04/04 02:01:11;;;;;;;6.60;3.80;;;;;;;5.31;58.34;98315.97;4959898;28;45502;-78
2021/04/04 02:03:36;;;;;;;9.05;4.35;;;;;;;5.30;61.64;98313.44;4974613;28;47066;-78
2021/04/04 02:06:04;;;;;;;7.68;3.80;;;;;;;5.30;58.81;98311.63;4972550;28;45237;-79
2021/04/04 02:08:30;;;;;;;8.55;3.58;;;;;;;5.39;57.26;98310.91;4963962;28;45390;-78
2021/04/04 02:10:57;;;;;;;7.18;4.20;;;;;;;5.80;55.20;98315.63;4968212;28;45261;-79
2021/04/04 02:13:26;;;;;;;8.20;4.28;;;;;;;5.89;55.33;98311.41;4959394;28;45629;-78
2021/04/04 02:15:55;;;;;;;7.47;3.70;;;;;;;5.68;56.56;98310.38;4959733;28;45280;-78
2021/04/04 02:18:21;;;;;;;8.30;4.63;;;;;;;5.59;57.01;98312.91;4971140;28;45259;-78
2021/04/04 02:20:48;;;;;;;6.63;3.78;;;;;;;5.60;56.96;98318.06;4959581;28;45474;-79
2021/04/04 02:23:15;;;;;;;5.90;3.90;;;;;;;5.62;58.57;98313.50;4959399;28;45598;-78
2021/04/04 02:25:41;;;;;;;6.22;3.92;;;;;;;5.51;58.09;98310.88;4959587;28;45299;-79
2021/04/04 02:28:07;;;;;;;6.63;3.70;;;;;;;5.46;58.18;98305.16;4959447;28;45396;-78
2021/04/04 02:30:33;;;;;;;6.03;3.33;;;;;;;5.67;55.60;98311.34;4960264;28;45288;-79
2021/04/04 02:33:10;;;;;;;5.97;3.55;;;;;;;5.61;56.59;98306.56;4971984;28;45406;-79
2021/04/04 02:35:42;;;;;;;9.20;3.60;;;;;;;5.53;57.27;98295.78;4959366;28;45285;-79
2021/04/04 02:38:13;;;;;;;7.20;3.88;;;;;;;5.71;56.14;98309.28;4959340;28;45185;-79
2021/04/04 02:40:41;;;;;;;6.65;3.58;;;;;;;5.58;56.59;98306.81;4933921;28;727231;-79
2021/04/04 02:43:12;;;;;;;8.25;3.88;;;;;;;5.37;60.64;98309.34;4960042;28;46116;-79
2021/04/04 02:45:38;;;;;;;7.38;4.35;;;;;;;5.39;59.64;98312.69;4969856;28;45433;-79
2021/04/04 02:48:14;;;;;;;8.52;3.95;;;;;;;5.20;59.71;98308.03;4966999;28;45276;-79
2021/04/04 02:50:40;;;;;;;8.60;4.25;;;;;;;5.23;59.17;98308.63;4971830;28;45383;-79
2021/04/04 02:53:08;;;;;;;8.85;4.22;;;;;;;5.08;60.61;98308.03;4964713;28;45336;-79
2021/04/04 02:55:37;;;;;;;6.90;3.75;;;;;;;5.00;59.35;98302.50;4965228;28;45325;-79
2021/04/04 02:58:08;;;;;;;7.25;3.75;;;;;;;5.19;58.41;98308.97;4978713;28;45358;-79
2021/04/04 03:00:37;;;;;;;7.07;3.97;;;;;;;5.13;58.88;98307.69;4960246;28;45292;-79
2021/04/04 03:03:05;;;;;;;10.40;4.43;;;;;;;5.05;59.16;98316.19;4959616;28;45358;-80
2021/04/04 03:05:31;;;;;;;8.23;4.05;;;;;;;5.06;60.35;98309.13;4959987;28;45419;-79
2021/04/04 03:08:00;;;;;;;7.00;4.03;;;;;;;4.96;61.51;98315.09;4960071;28;45284;-79
2021/04/04 03:10:25;;;;;;;8.57;4.45;;;;;;;4.95;60.83;98320.47;4965871;28;45451;-79
2021/04/04 03:12:52;;;;;;;7.90;4.38;;;;;;;5.00;60.16;98320.13;4965548;28;45445;-78
2021/04/04 03:15:20;;;;;;;7.13;5.10;;;;;;;5.12;61.60;98321.81;4959894;28;45495;-79
2021/04/04 03:17:48;;;;;;;7.55;4.10;;;;;;;5.14;59.55;98322.53;4959881;28;45408;-79
2021/04/04 03:20:14;;;;;;;8.43;4.15;;;;;;;5.30;58.57;98321.34;4959870;28;45583;-78
2021/04/04 03:22:43;;;;;;;6.93;4.18;;;;;;;5.59;58.13;98319.03;4959457;28;45659;-78
2021/04/04 03:25:10;;;;;;;7.53;3.95;;;;;;;5.36;59.00;98320.84;4959789;28;45387;-79
2021/04/04 03:27:37;;;;;;;7.63;3.95;;;;;;;5.25;59.88;98330.44;4959304;28;45607;-78
2021/04/04 03:30:07;;;;;;;8.82;4.53;;;;;;;5.07;60.20;98326.63;4960464;28;45575;-79
2021/04/04 03:32:35;;;;;;;8.77;4.00;;;;;;;4.73;61.68;98323.91;4972294;28;46350;-79
2021/04/04 03:35:05;;;;;;;7.00;4.05;;;;;;;4.94;59.82;98327.56;4959653;28;45447;-79
2021/04/04 03:37:32;;;;;;;7.03;4.10;;;;;;;5.32;60.21;98332.59;4971140;28;45328;-79
2021/04/04 03:39:58;;;;;;;8.90;4.30;;;;;;;4.72;62.49;98338.91;4959624;28;45340;-79
2021/04/04 03:42:28;;;;;;;6.18;4.00;;;;;;;5.13;60.86;98330.56;4958868;28;46290;-79
2021/04/04 03:44:57;;;;;;;5.72;3.83;;;;;;;4.66;62.63;98327.03;4963265;28;45283;-79
2021/04/04 03:47:23;;;;;;;6.03;4.10;;;;;;;4.92;60.18;98329.47;4973628;28;45343;-79
2021/04/04 03:49:49;;;;;;;7.88;4.07;;;;;;;5.01;61.63;98335.00;4959257;28;45562;-79
2021/04/04 03:52:16;;;;;;;6.90;4.25;;;;;;;4.90;62.48;98339.31;4970552;28;46894;-79
2021/04/04 03:54:43;;;;;;;7.22;4.50;;;;;;;4.68;60.89;98330.38;4959356;28;45173;-80
2021/04/04 03:57:10;;;;;;;7.22;4.00;;;;;;;4.60;61.40;98339.84;4976532;28;45269;-79
2021/04/04 03:59:39;;;;;;;5.93;3.83;;;;;;;4.67;61.50;98336.59;4966730;28;45246;-79
2021/04/04 04:02:05;;;;;;;6.45;3.88;;;;;;;4.47;63.71;98343.41;4958755;28;46110;-79
2021/04/04 04:04:31;;;;;;;6.95;4.28;;;;;;;4.68;61.08;98340.09;4959139;28;45352;-79
2021/04/04 04:06:57;;;;;;;7.95;3.70;;;;;;;4.74;59.78;98349.31;4959047;28;45225;-78
2021/04/04 04:09:24;;;;;;;8.13;4.45;;;;;;;4.68;61.51;98342.72;4970653;28;45275;-79
2021/04/04 04:11:51;;;;;;;8.95;4.22;;;;;;;4.51;61.42;98351.91;4959872;28;45266;-78
2021/04/04 04:14:20;;;;;;;6.20;4.03;;;;;;;4.67;60.73;98339.25;4958905;28;45409;-79
2021/04/04 04:16:46;;;;;;;6.50;4.10;;;;;;;4.64;60.60;98343.91;4958943;28;45411;-79
2021/04/04 04:19:11;;;;;;;7.32;4.38;;;;;;;4.48;62.54;98352.13;4958851;28;45309;-78
2021/04/04 04:21:39;;;;;;;8.27;4.00;;;;;;;4.61;61.19;98341.50;4958464;28;45808;-78
2021/04/04 04:24:10;;;;;;;6.20;4.00;;;;;;;4.84;59.48;98350.28;4958914;28;45241;-80
2021/04/04 04:26:36;;;;;;;7.85;4.20;;;;;;;4.64;59.22;98349.19;4958424;28;45242;-79
2021/04/04 04:29:01;;;;;;;6.78;3.78;;;;;;;4.55;62.42;98353.34;4958712;28;45545;-79
2021/04/04 04:31:32;;;;;;;8.20;4.45;;;;;;;4.53;62.32;98350.84;4966138;28;45993;-79
2021/04/04 04:34:01;;;;;;;7.72;4.40;;;;;;;4.29;62.18;98350.88;4962513;28;46144;-80
2021/04/04 04:36:27;;;;;;;7.15;4.10;;;;;;;4.45;61.51;98352.34;4958936;28;45420;-80
2021/04/04 04:38:53;;;;;;;7.40;3.95;;;;;;;4.73;59.24;98355.53;4970543;28;45260;-80
2021/04/04 04:41:20;;;;;;;7.03;3.78;;;;;;;4.59;61.64;98349.53;4967927;28;47503;-79
2021/04/04 04:43:59;;;;;;;7.72;4.10;;;;;;;4.09;63.13;98353.19;4958472;28;45272;-79
2021/04/04 04:46:25;;;;;;;7.88;4.43;;;;;;;4.21;63.44;98355.84;4974604;28;45408;-80
2021/04/04 04:48:52;;;;;;;6.47;4.45;;;;;;;3.92;63.73;98356.16;4960563;28;45301;-79
2021/04/04 04:51:19;;;;;;;7.63;4.15;;;;;;;4.15;62.86;98351.03;4961304;28;46121;-79
2021/04/04 04:53:46;;;;;;;7.53;4.70;;;;;;;4.42;61.48;98360.47;4960263;28;45353;-78
2021/04/04 04:56:12;;;;;;;8.02;4.40;;;;;;;4.22;61.78;98357.53;4968375;28;45356;-79
2021/04/04 04:58:38;;;;;;;7.07;4.20;;;;;;;4.56;60.78;98365.56;4973285;28;45526;-79
2021/04/04 05:01:07;;;;;;;6.40;3.90;;;;;;;4.31;61.55;98372.66;4958322;28;45388;-79
2021/04/04 05:03:33;;;;;;;8.82;3.85;;;;;;;4.07;63.13;98370.88;4956185;28;45521;-79
2021/04/04 05:06:02;;;;;;;7.20;3.95;;;;;;;3.87;63.27;98371.47;4960888;28;45537;-79
2021/04/04 05:08:30;;;;;;;8.07;4.38;;;;;;;3.89;64.57;98372.19;4971380;28;45490;-80
2021/04/04 05:10:57;;;;;;;7.50;4.50;;;;;;;4.03;64.03;98373.81;4971294;28;46215;-80
2021/04/04 05:13:23;;;;;;;8.80;4.80;;;;;;;4.03;64.96;98372.06;4973313;28;45388;-79
2021/04/04 05:15:49;;;;;;;7.93;4.18;;;;;;;3.87;65.01;98380.19;4963996;28;45240;-79
2021/04/04 05:18:15;;;;;;;11.40;4.97;;;;;;;3.84;64.65;98385.69;4979854;28;45565;-79
2021/04/04 05:20:44;;;;;;;8.18;4.10;;;;;;;3.92;63.59;98385.13;4963152;28;45447;-79
2021/04/04 05:23:10;;;;;;;10.10;4.35;;;;;;;4.20;63.58;98380.50;4973883;28;45403;-79
2021/04/04 05:25:36;;;;;;;7.57;4.38;;;;;;;4.11;63.99;98387.25;4977524;28;45454;-79
2021/04/04 05:28:02;;;;;;;8.00;4.45;;;;;;;4.08;63.58;98393.63;4968690;28;45449;-79
2021/04/04 05:30:27;;;;;;;7.50;3.92;;;;;;;4.21;62.42;98385.63;4960227;28;47617;-79
2021/04/04 05:32:53;;;;;;;8.93;4.65;;;;;;;3.98;63.89;98402.28;4973548;28;45409;-79
2021/04/04 05:35:22;;;;;;;8.35;4.22;;;;;;;4.35;63.13;98397.81;4975933;28;45446;-79
2021/04/04 05:37:49;;;;;;;8.00;4.32;;;;;;;4.30;63.18;98394.66;4976390;28;45599;-84
2021/04/04 05:40:17;;;;;;;6.97;4.10;;;;;;;4.13;64.39;98395.06;4977439;28;46654;-86
2021/04/04 05:42:50;;;;;;;8.70;4.35;;;;;;;4.09;63.54;98405.81;4975744;28;45782;-79
2021/04/04 05:45:22;;;;;;;7.75;3.97;;;;;;;4.40;61.98;98402.72;4972554;28;45464;-80
2021/04/04 05:47:58;;;;;;;7.15;4.10;;;;;;;4.21;62.55;98401.44;4975840;28;45481;-82
2021/04/04 05:50:46;;;;;;;7.07;4.60;;;;;;;4.28;63.97;98407.09;4984657;28;46170;-84
2021/04/04 05:53:33;;;;;;;8.10;4.43;;;;;;;4.29;62.69;98410.56;4979511;28;45328;-83
2021/04/04 05:56:20;;;;;;;7.55;4.25;;;;;;;4.78;59.90;98411.34;4971877;28;45590;-83
2021/04/04 05:59:06;;;;;;;6.75;4.13;;;;;;;4.90;61.06;98409.59;4970190;28;45483;-81
2021/04/04 06:01:32;;;;;;;9.88;4.30;;;;;;;4.87;60.43;98413.34;4964466;28;46710;-80
2021/04/04 06:04:16;;;;;;;8.88;4.10;;;;;;;4.87;60.50;98417.75;4969224;28;45547;-83
2021/04/04 06:06:55;;;;;;;8.77;4.18;;;;;;;5.02;60.18;98410.47;4979510;28;45434;-79
2021/04/04 06:09:24;;;;;;;6.32;4.25;;;;;;;4.76;61.53;98421.16;4972190;28;45463;-78
2021/04/04 06:12:04;;;;;;;6.25;4.18;;;;;;;4.61;62.92;98417.91;4974049;28;46304;-79
2021/04/04 06:14:53;;;;;;;8.20;4.35;;;;;;;4.56;62.79;98418.25;4978486;28;45635;-79
2021/04/04 06:17:30;;;;;;;7.22;4.03;;;;;;;4.64;62.72;98421.13;4980056;28;46015;-78
2021/04/04 06:20:11;;;;;;;8.32;4.15;;;;;;;4.75;60.70;98427.41;4976282;28;45461;-78
2021/04/04 06:22:59;;;;;;;20.73;17.30;;;;;;;5.17;59.10;98427.75;4977052;28;46425;-77
2021/04/04 06:25:42;;;;;;;8.45;4.55;;;;;;;5.14;59.88;98433.28;4976185;28;45272;-78
2021/04/04 06:28:17;;;;;;;6.25;4.00;;;;;;;5.05;61.71;98439.25;4973159;28;45658;-79
2021/04/04 06:30:55;;;;;;;6.82;3.92;;;;;;;5.05;63.13;98444.53;4977094;28;45461;-80
2021/04/04 06:33:27;;;;;;;9.85;4.43;;;;;;;5.02;60.84;98440.31;4976974;28;46044;-80
2021/04/04 06:36:27;;;;;;;6.40;4.60;;;;;;;5.05;61.84;98440.06;4960848;28;45342;-82
2021/04/04 06:39:12;;;;;;;9.43;4.80;;;;;;;5.25;59.48;98438.56;4975074;28;45299;-82
2021/04/04 06:41:49;;;;;;;7.38;4.00;;;;;;;5.28;59.47;98447.19;4970319;28;45924;-80
2021/04/04 06:44:56;;;;;;;7.90;4.28;;;;;;;5.33;60.44;98451.16;4970184;28;46136;-82
2021/04/04 06:48:00;;;;;;;7.18;4.10;;;;;;;5.49;57.38;98450.81;4960327;28;45492;-82
2021/04/04 06:50:30;;;;;;;7.90;4.28;;;;;;;5.31;57.94;98445.19;4960543;28;45451;-82
2021/04/04 06:53:07;;;;;;;9.38;4.55;;;;;;;5.36;59.90;98444.81;4974507;28;45393;-85
2021/04/04 06:55:35;;;;;;;9.05;4.78;;;;;;;5.37;58.47;98449.97;4976460;28;46163;-86
2021/04/04 06:58:22;;;;;;;7.57;4.15;;;;;;;5.59;59.19;98458.00;4970257;28;45525;-83
2021/04/04 07:01:25;;;;;;;7.53;4.45;;;;;;;5.79;58.06;98449.41;4984835;28;45700;-84
2021/04/04 07:04:02;;;;;;;7.60;4.28;;;;;;;5.73;58.60;98449.84;4978984;28;45490;-84
2021/04/04 07:06:39;;;;;;;9.45;4.75;;;;;;;5.61;59.33;98451.66;4982001;28;46082;-83
2021/04/04 07:09:30;;;;;;;11.57;4.57;;;;;;;5.82;58.48;98441.25;4977588;28;45812;-87
2021/04/04 07:12:23;;;;;;;7.80;4.63;;;;;;;5.75;58.40;98450.59;4962872;28;45320;-83
2021/04/04 07:15:16;;;;;;;11.43;4.45;;;;;;;5.79;56.74;98452.03;4970586;28;45417;-81
2021/04/04 07:18:12;;;;;;;7.68;4.32;;;;;;;5.95;56.31;98453.47;4963611;28;48033;-85
2021/04/04 07:20:52;;;;;;;8.30;4.07;;;;;;;6.08;54.59;98446.28;4975973;28;45493;-84
2021/04/04 07:23:26;;;;;;;8.57;4.65;;;;;;;6.20;54.63;98443.59;4980934;28;45485;-84
2021/04/04 07:26:01;;;;;;;9.70;4.43;;;;;;;6.27;55.52;98440.34;4973391;28;45444;-85
2021/04/04 07:28:57;;;;;;;8.70;4.50;;;;;;;6.35;53.84;98438.91;4968567;28;47271;-85
2021/04/04 07:31:28;;;;;;;11.07;4.50;;;;;;;6.48;55.46;98439.56;4963424;28;45713;-83
2021/04/04 07:34:04;;;;;;;9.18;4.40;;;;;;;6.52;53.09;98442.78;4973667;28;45466;-86
2021/04/04 07:36:50;;;;;;;9.68;4.32;;;;;;;6.56;55.42;98438.94;4979393;28;45312;-86
2021/04/04 07:39:22;;;;;;;7.95;4.47;;;;;;;6.66;54.56;98436.38;4983800;28;45466;-85
2021/04/04 07:42:09;;;;;;;6.72;4.18;;;;;;;6.76;52.94;98444.41;4970453;28;45327;-86
2021/04/04 07:44:41;;;;;;;6.45;4.20;;;;;;;6.88;52.04;98432.81;4967359;28;45474;-86
2021/04/04 07:47:24;;;;;;;6.70;3.83;;;;;;;6.98;51.41;98433.72;4968556;28;45737;-85
2021/04/04 07:49:58;;;;;;;12.00;4.55;;;;;;;7.23;51.56;98434.28;4967232;28;46505;-81
2021/04/04 07:52:39;;;;;;;8.52;4.63;;;;;;;7.17;48.91;98432.16;4973478;28;45399;-81
2021/04/04 07:55:31;;;;;;;8.52;4.10;;;;;;;7.29;48.36;98427.63;4973577;28;45516;-82
2021/04/04 07:58:19;;;;;;;7.57;4.18;;;;;;;7.44;49.81;98436.06;4969999;28;45261;-80
2021/04/04 08:00:56;;;;;;;9.23;4.57;;;;;;;7.53;49.28;98439.72;4965926;28;47061;-82
2021/04/04 08:03:33;;;;;;;5.72;3.83;;;;;;;7.66;47.31;98424.47;4975187;28;45402;-81
2021/04/04 08:06:07;;;;;;;22.42;6.70;;;;;;;7.92;47.68;98425.81;4974050;28;45337;-81
2021/04/04 08:08:48;;;;;;;11.48;5.35;;;;;;;8.18;47.25;98415.56;4976334;28;45413;-83
2021/04/04 08:11:26;;;;;;;14.15;5.38;;;;;;;8.37;46.48;98430.63;4979372;28;47163;-83
2021/04/04 08:13:54;;;;;;;10.95;5.03;;;;;;;8.41;45.39;98429.41;4978735;28;45423;-82
2021/04/04 08:16:30;;;;;;;8.27;4.78;;;;;;;8.50;47.45;98430.41;4960945;28;45268;-84
2021/04/04 08:18:55;;;;;;;13.57;5.70;;;;;;;8.55;45.47;98417.59;4970861;28;46198;-85
2021/04/04 08:21:38;;;;;;;10.10;3.95;;;;;;;8.67;44.46;98412.13;4984133;28;45436;-85
2021/04/04 08:24:38;;;;;;;15.48;4.18;;;;;;;9.35;42.81;98427.13;4968153;28;45301;-83
2021/04/04 08:27:11;;;;;;;13.07;4.90;;;;;;;10.85;40.38;98429.69;4974408;28;45479;-85
2021/04/04 08:29:45;;;;;;;6.53;3.97;;;;;;;10.82;40.96;98425.53;4966147;28;45551;-82
2021/04/04 08:32:15;;;;;;;9.32;4.40;;;;;;;10.69;41.48;98422.41;4964889;28;46108;-82
2021/04/04 08:34:44;;;;;;;9.93;4.28;;;;;;;10.50;40.33;98430.38;4971164;28;45423;-82
2021/04/04 08:37:19;;;;;;;6.63;4.38;;;;;;;10.75;40.52;98421.81;4959747;28;45376;-83
2021/04/04 08:39:52;;;;;;;7.43;4.15;;;;;;;10.97;40.56;98422.31;4963030;28;45351;-83
2021/04/04 08:42:18;;;;;;;9.80;4.35;;;;;;;12.14;39.78;98427.31;4972585;28;45426;-81
2021/04/04 08:44:53;;;;;;;7.28;4.40;;;;;;;14.30;33.82;98418.91;4967121;28;45288;-84
2021/04/04 08:47:29;;;;;;;9.15;4.43;;;;;;;15.90;31.56;98427.16;4978619;28;45729;-81
2021/04/04 08:49:57;;;;;;;7.72;4.43;;;;;;;18.49;29.02;98417.22;4961384;28;45622;-83
2021/04/04 08:52:35;;;;;;;8.32;4.25;;;;;;;17.74;27.31;98421.44;4972117;28;45553;-82
2021/04/04 08:55:01;;;;;;;9.77;5.50;;;;;;;18.17;27.02;98423.13;4973704;28;45376;-82
2021/04/04 08:57:41;;;;;;;9.73;4.78;;;;;;;19.13;25.29;98425.00;4971216;28;45273;-82
2021/04/04 09:00:10;;;;;;;6.18;4.20;;;;;;;19.58;24.54;98425.19;4966848;28;45538;-81
2021/04/04 09:02:39;;;;;;;7.10;4.40;;;;;;;20.59;22.97;98418.59;4973950;28;45973;-81
2021/04/04 09:05:05;;;;;;;7.50;4.47;;;;;;;20.58;23.50;98420.47;4964200;28;45373;-83
2021/04/04 09:07:42;;;;;;;7.93;4.55;;;;;;;20.65;22.85;98418.53;4967130;28;45346;-82
2021/04/04 09:10:14;;;;;;;11.18;4.75;;;;;;;21.15;22.23;98419.69;4970142;28;45700;-82
2021/04/04 09:12:43;;;;;;;9.55;4.22;;;;;;;20.36;23.82;98425.38;4967002;28;46523;-83
2021/04/04 09:15:10;;;;;;;7.50;4.55;;;;;;;20.68;22.98;98423.50;4984949;28;45378;-84
2021/04/04 09:17:36;;;;;;;10.40;6.60;;;;;;;21.53;22.38;98421.41;4967313;28;45414;-82
2021/04/04 09:20:06;;;;;;;6.32;4.40;;;;;;;21.55;22.58;98415.78;4968822;28;45477;-79
2021/04/04 09:22:33;;;;;;;6.70;4.68;;;;;;;22.21;21.44;98409.88;4973005;28;46046;-82
2021/04/04 09:25:09;;;;;;;7.40;4.70;;;;;;;21.00;22.44;98417.28;4972807;28;45674;-78
2021/04/04 09:27:45;;;;;;;7.13;4.43;;;;;;;19.72;22.66;98415.19;4963773;28;45506;-79
2021/04/04 09:30:34;;;;;;;6.75;4.65;;;;;;;21.53;21.36;98421.41;4972750;28;45379;-80
2021/04/04 09:33:05;;;;;;;8.77;6.65;;;;;;;21.77;22.14;98410.81;4968500;28;45888;-84
2021/04/04 09:35:32;;;;;;;6.30;4.90;;;;;;;23.52;19.55;98402.94;4966244;28;45334;-84
2021/04/04 09:38:04;;;;;;;7.40;5.10;;;;;;;22.98;20.00;98411.94;4982286;28;45427;-82
2021/04/04 09:40:30;;;;;;;7.07;5.38;;;;;;;21.07;20.57;98409.97;4965951;28;45414;-83
2021/04/04 09:43:05;;;;;;;157.70;140.60;;;;;;;23.51;22.61;98403.16;4968999;28;45287;-82
2021/04/04 09:45:30;;;;;;;10.00;6.35;;;;;;;20.66;21.21;98398.59;4987177;28;45517;-82
2021/04/04 09:47:56;;;;;;;237.88;213.23;;;;;;;21.82;22.09;98392.00;4974443;28;45337;-83
2021/04/04 09:50:28;;;;;;;280.17;245.57;;;;;;;22.64;20.76;98395.38;4983032;28;45316;-84
2021/04/04 09:52:55;;;;;;;16.77;6.80;;;;;;;21.81;22.54;98392.22;4986854;28;46210;-84
2021/04/04 09:55:22;;;;;;;5.35;4.35;;;;;;;22.99;19.99;98397.31;4965228;28;45502;-84
2021/04/04 09:57:50;;;;;;;6.43;4.63;;;;;;;23.60;21.83;98383.56;4979848;28;45485;-81
2021/04/04 10:00:36;;;;;;;7.03;4.57;;;;;;;23.95;19.64;98387.28;4962038;28;46008;-83
2021/04/04 10:03:13;;;;;;;5.82;4.10;;;;;;;21.69;21.69;98386.75;4966589;28;46366;-89
2021/04/04 10:05:43;;;;;;;7.53;5.18;;;;;;;23.05;21.09;98386.59;4976997;28;45491;-80
2021/04/04 10:08:21;;;;;;;6.13;4.97;;;;;;;22.97;20.91;98383.16;4966941;28;45348;-83
2021/04/04 10:10:52;;;;;;;6.38;4.70;;;;;;;21.10;21.84;98378.97;4963271;28;45385;-85
2021/04/04 10:13:24;;;;;;;6.97;4.65;;;;;;;22.84;21.75;98375.25;4977498;28;45588;-87
2021/04/04 10:15:50;;;;;;;7.15;4.60;;;;;;;23.48;20.83;98377.34;4962674;28;45470;-83
2021/04/04 10:18:18;;;;;;;8.63;4.88;;;;;;;21.53;21.56;98380.84;4963240;28;45518;-82
2021/04/04 10:20:45;;;;;;;5.88;4.55;;;;;;;22.00;22.38;98366.78;4981851;28;45365;-85
2021/04/04 10:23:11;;;;;;;5.97;4.32;;;;;;;20.60;23.12;98366.22;4986165;28;46147;-84
2021/04/04 10:25:38;;;;;;;6.57;4.70;;;;;;;19.73;24.82;98370.16;4964088;28;45344;-84
2021/04/04 10:28:07;;;;;;;6.53;4.60;;;;;;;19.13;24.99;98357.63;4965010;28;45471;-87
2021/04/04 10:30:34;;;;;;;6.20;4.82;;;;;;;19.44;25.77;98356.94;4975277;28;45571;-85
2021/04/04 10:33:21;;;;;;;5.63;4.72;;;;;;;19.43;25.34;98351.75;4966423;28;46223;-85
2021/04/04 10:35:46;;;;;;;8.07;5.10;;;;;;;18.99;26.09;98346.00;4961413;28;45308;-83
2021/04/04 10:38:15;;;;;;;6.82;4.93;;;;;;;19.11;27.19;98336.28;4961976;28;45408;-82
2021/04/04 10:40:54;;;;;;;6.78;4.57;;;;;;;18.91;27.16;98331.69;4961721;28;45352;-83
2021/04/04 10:43:33;;;;;;;6.30;4.55;;;;;;;18.74;27.10;98334.00;4972761;28;45292;-84
2021/04/04 10:46:07;;;;;;;7.05;5.05;;;;;;;18.54;26.96;98328.59;4979528;28;45518;-87
2021/04/04 10:48:47;;;;;;;8.02;5.15;;;;;;;18.04;29.06;98326.22;4988143;28;45698;-91
2021/04/04 10:51:15;;;;;;;8.07;5.33;;;;;;;17.40;27.89;98323.66;4983157;28;45417;-87
2021/04/04 10:53:43;;;;;;;8.23;4.85;;;;;;;17.38;29.82;98317.63;4980690;28;46368;-88
2021/04/04 10:56:10;;;;;;;7.55;5.57;;;;;;;17.28;29.35;98309.09;4978696;28;45529;-90
2021/04/04 10:58:37;;;;;;;8.55;5.10;;;;;;;17.21;30.60;98314.44;4980273;28;45482;-90
2021/04/04 11:01:04;;;;;;;10.60;5.25;;;;;;;16.72;29.97;98310.75;4979108;28;45431;-86
2021/04/04 11:03:30;;;;;;;9.10;5.82;;;;;;;16.56;29.05;98307.31;4977103;28;47297;-90
2021/04/04 11:05:58;;;;;;;8.65;5.15;;;;;;;15.72;31.34;98301.50;4977153;28;47300;-83
2021/04/04 11:08:23;;;;;;;6.80;5.10;;;;;;;15.41;31.41;98299.84;4971216;28;45484;-88
2021/04/04 11:10:50;;;;;;;9.77;5.55;;;;;;;15.93;32.56;98299.88;4968783;28;45415;-86
2021/04/04 11:13:17;;;;;;;7.78;5.10;;;;;;;15.96;31.64;98296.81;4972202;28;46053;-91
2021/04/04 11:15:50;;;;;;;7.80;5.60;;;;;;;16.26;32.18;98285.16;4974787;28;45233;-87
2021/04/04 11:18:32;;;;;;;7.38;5.25;;;;;;;15.96;31.34;98285.28;4976659;28;45487;-88
2021/04/04 11:21:04;;;;;;;6.38;4.90;;;;;;;15.97;31.75;98287.75;4976956;28;45358;-84
2021/04/04 11:23:30;;;;;;;8.82;5.15;;;;;;;15.17;32.94;98292.94;4973661;28;47363;-89
2021/04/04 11:25:56;;;;;;;8.70;5.30;;;;;;;15.07;33.90;98282.50;4979054;28;45713;-88
2021/04/04 11:28:25;;;;;;;9.65;5.75;;;;;;;15.40;32.50;98284.78;4977190;28;45348;-86
2021/04/04 11:30:55;;;;;;;7.65;4.93;;;;;;;15.66;32.87;98283.47;4973864;28;45624;-83
2021/04/04 11:33:27;;;;;;;8.73;5.00;;;;;;;15.49;32.98;98290.88;4985465;28;47251;-88
2021/04/04 11:35:58;;;;;;;7.82;5.53;;;;;;;14.96;32.47;98285.63;4984495;28;45423;-89
2021/04/04 11:38:24;;;;;;;6.75;4.90;;;;;;;14.67;33.40;98288.03;4976081;28;45454;-87
2021/04/04 11:41:08;;;;;;;9.75;5.88;;;;;;;15.03;33.26;98276.69;4973625;28;45355;-88
2021/04/04 11:43:34;;;;;;;7.90;5.05;;;;;;;14.83;35.18;98275.53;4966205;28;46161;-88
2021/04/04 11:45:59;;;;;;;7.00;5.10;;;;;;;15.22;33.71;98279.81;4981031;28;45395;-85
2021/04/04 11:48:36;;;;;;;8.20;5.38;;;;;;;14.76;32.79;98283.50;4962621;28;45303;-84
2021/04/04 11:51:10;;;;;;;8.15;5.05;;;;;;;15.04;33.85;98274.84;4983042;28;45406;-88
2021/04/04 11:53:47;;;;;;;8.88;5.18;;;;;;;14.80;32.84;98268.72;4962633;28;46473;-82
2021/04/04 11:56:49;;;;;;;6.55;4.60;;;;;;;14.91;34.48;98266.63;4965212;28;45482;-87
2021/04/04 11:59:14;;;;;;;7.70;4.57;;;;;;;14.95;33.50;98257.19;4936853;28;45463;-85
2021/04/04 12:01:40;;;;;;;9.18;4.97;;;;;;;15.24;34.65;98264.41;4977328;28;45520;-87